Time;durP1;ratioP1;P1;durP2;ratioP2;P2;SDS_P1;SDS_P2;PMS_P1;PMS_P2;Temp;Humidity;BMP_temperature;BMP_pressure;BME280_temperature;BME280_humidity;BME280_pressure;Samples;Min_cycle;Max_cycle;Signal;HPM_P1;HPM_P2
2022/12/21 00:01:05;;;;;;;;;;;10.80;91.80;;;;;;5015509;28;19917;-80
2022/12/21 00:03:31;;;;;;;;;;;10.70;91.60;;;;;;5012948;28;19921;-79
2022/12/21 00:05:57;;;;;;;;;;;10.70;91.90;;;;;;5017362;28;19915;-79
2022/12/21 00:08:22;;;;;;;;;;;10.70;91.70;;;;;;5013961;28;19921;-79
2022/12/21 00:10:48;;;;;;;;;;;10.70;91.80;;;;;;5024206;28;19914;-78
2022/12/21 00:13:17;;;;;;;;;;;10.60;91.70;;;;;;5023826;28;19913;-78
2022/12/21 00:15:44;;;;;;;;;;;10.70;91.80;;;;;;5014965;28;19922;-78
2022/12/21 00:18:10;;;;;;;;;;;10.60;91.80;;;;;;5027535;28;19909;-77
2022/12/21 00:20:36;;;;;;;;;;;10.60;91.90;;;;;;5040613;28;19920;-76
2022/12/21 00:23:05;;;;;;;;;;;10.60;91.80;;;;;;5025368;28;19914;-81
2022/12/21 00:25:30;;;;;;;;;;;10.70;91.80;;;;;;5023154;28;19959;-79
2022/12/21 00:27:56;;;;;;;;;;;10.60;91.90;;;;;;5022410;28;19925;-79
2022/12/21 00:30:22;;;;;;;;;;;10.60;92.00;;;;;;5025344;28;19948;-81
2022/12/21 00:32:47;;;;;;;;;;;10.60;92.20;;;;;;5018817;28;20000;-79
2022/12/21 00:35:13;;;;;;;;;;;10.60;92.00;;;;;;5011181;28;20347;-77
2022/12/21 00:37:38;;;;;;;;;;;10.60;91.90;;;;;;5012646;28;19921;-76
2022/12/21 00:40:04;;;;;;;;;;;10.60;92.00;;;;;;5013539;28;19919;-77
2022/12/21 00:42:32;;;;;;;;;;;10.60;92.10;;;;;;5014665;28;20254;-79
2022/12/21 00:44:57;;;;;;;;;;;10.60;92.00;;;;;;5021752;28;19953;-80
2022/12/21 00:47:23;;;;;;;;;;;10.60;91.90;;;;;;5011227;28;19918;-80
2022/12/21 00:49:49;;;;;;;;;;;10.60;92.00;;;;;;5027194;28;19920;-79
2022/12/21 00:52:14;;;;;;;;;;;10.50;92.00;;;;;;5025706;28;19920;-80
2022/12/21 00:54:40;;;;;;;;;;;10.50;92.00;;;;;;5022703;28;19968;-80
2022/12/21 00:57:06;;;;;;;;;;;10.50;92.20;;;;;;5022491;28;19920;-79
2022/12/21 00:59:31;;;;;;;;;;;10.50;92.40;;;;;;5018264;28;20345;-79
2022/12/21 01:02:00;;;;;;;;;;;10.50;92.40;;;;;;5019539;28;19914;-79
2022/12/21 01:04:26;;;;;;;;;;;10.50;92.50;;;;;;5022243;28;19921;-79
2022/12/21 01:06:51;;;;;;;;;;;10.50;92.50;;;;;;5020272;28;19926;-80
2022/12/21 01:09:17;;;;;;;;;;;10.50;92.40;;;;;;5018231;28;20709;-79
2022/12/21 01:11:42;;;;;;;;;;;10.50;92.30;;;;;;5007158;28;19921;-77
2022/12/21 01:14:08;;;;;;;;;;;10.40;92.30;;;;;;5013031;28;19917;-78
2022/12/21 01:16:33;;;;;;;;;;;10.50;92.50;;;;;;5012713;28;19913;-77
2022/12/21 01:19:00;;;;;;;;;;;10.50;92.60;;;;;;5014215;28;19913;-78
2022/12/21 01:21:26;;;;;;;;;;;10.50;92.40;;;;;;5009469;28;19931;-77
2022/12/21 01:23:53;;;;;;;;;;;10.50;92.40;;;;;;5027986;28;19920;-77
2022/12/21 01:26:18;;;;;;;;;;;10.40;92.50;;;;;;5109358;23;19923;-81
2022/12/21 01:28:44;;;;;;;;;;;10.40;92.40;;;;;;5000853;28;19922;-80
2022/12/21 01:31:10;;;;;;;;;;;10.50;92.30;;;;;;4994611;28;19925;-80
2022/12/21 01:33:36;;;;;;;;;;;10.40;92.30;;;;;;5004440;28;19914;-80
2022/12/21 01:36:08;;;;;;;;;;;10.50;92.40;;;;;;4994214;28;19989;-81
2022/12/21 01:38:34;;;;;;;;;;;10.50;92.30;;;;;;4998311;28;19920;-79
2022/12/21 01:41:00;;;;;;;;;;;10.50;92.40;;;;;;4995159;28;20341;-79
2022/12/21 01:43:45;;;;;;;;;;;10.50;92.20;;;;;;4993992;28;19913;-80
2022/12/21 01:46:12;;;;;;;;;;;10.50;92.40;;;;;;4993497;28;19949;-81
2022/12/21 01:48:40;;;;;;;;;;;10.40;92.40;;;;;;4993605;28;19918;-79
2022/12/21 01:51:06;;;;;;;;;;;10.50;92.30;;;;;;4996263;28;19937;-79
2022/12/21 01:53:33;;;;;;;;;;;10.50;92.20;;;;;;4995173;28;20410;-80
2022/12/21 01:56:01;;;;;;;;;;;10.50;92.20;;;;;;4995318;28;20298;-80
2022/12/21 01:58:27;;;;;;;;;;;10.50;92.30;;;;;;5008866;28;19945;-80
2022/12/21 02:00:53;;;;;;;;;;;10.50;92.30;;;;;;4992820;28;20385;-79
2022/12/21 02:03:21;;;;;;;;;;;10.50;92.20;;;;;;4991280;28;19914;-78
2022/12/21 02:05:53;;;;;;;;;;;10.50;92.20;;;;;;4992553;28;20008;-80
2022/12/21 02:08:19;;;;;;;;;;;10.50;92.10;;;;;;4991508;28;19922;-81
2022/12/21 02:10:44;;;;;;;;;;;10.40;92.10;;;;;;4993815;28;19913;-78
2022/12/21 02:13:11;;;;;;;;;;;10.40;92.20;;;;;;4994999;28;19940;-81
2022/12/21 02:15:36;;;;;;;;;;;10.50;92.10;;;;;;4992227;28;19933;-81
2022/12/21 02:18:12;;;;;;;;;;;10.50;92.10;;;;;;4987121;28;19913;-79
2022/12/21 02:20:43;;;;;;;;;;;10.40;92.10;;;;;;4991323;28;19992;-80
2022/12/21 02:23:12;;;;;;;;;;;10.50;92.20;;;;;;4991638;28;20012;-80
2022/12/21 02:25:46;;;;;;;;;;;10.40;92.20;;;;;;4994222;28;20388;-78
2022/12/21 02:28:21;;;;;;;;;;;10.50;92.10;;;;;;5004085;28;20656;-81
2022/12/21 02:31:10;;;;;;;;;;;10.40;92.10;;;;;;5002498;28;20345;-79
2022/12/21 02:33:57;;;;;;;;;;;10.40;92.40;;;;;;4993877;28;19918;-79
2022/12/21 02:36:42;;;;;;;;;;;10.40;92.20;;;;;;5000382;28;20049;-80
2022/12/21 02:39:11;;;;;;;;;;;10.40;92.30;;;;;;4995138;28;20012;-80
2022/12/21 02:41:42;;;;;;;;;;;10.30;92.20;;;;;;4991567;28;19914;-80
2022/12/21 02:44:14;;;;;;;;;;;10.30;92.30;;;;;;5004792;28;20030;-79
2022/12/21 02:46:45;;;;;;;;;;;10.40;92.40;;;;;;4991501;28;19943;-80
2022/12/21 02:49:26;;;;;;;;;;;10.30;92.40;;;;;;4990178;28;19936;-80
2022/12/21 02:51:57;;;;;;;;;;;10.40;92.40;;;;;;4993666;28;19922;-81
2022/12/21 02:54:23;;;;;;;;;;;10.40;92.30;;;;;;5014293;28;20020;-80
2022/12/21 02:56:48;;;;;;;;;;;10.40;92.40;;;;;;5010628;28;20452;-79
2022/12/21 02:59:16;;;;;;;;;;;10.40;92.40;;;;;;4988111;28;19914;-79
2022/12/21 03:01:41;;;;;;;;;;;10.40;92.50;;;;;;4993488;28;19914;-80
2022/12/21 03:04:25;;;;;;;;;;;10.40;92.30;;;;;;4991139;28;19937;-80
2022/12/21 03:07:14;;;;;;;;;;;10.40;92.40;;;;;;4980645;28;19965;-79
2022/12/21 03:09:39;;;;;;;;;;;10.40;92.30;;;;;;4995360;28;20308;-79
2022/12/21 03:12:34;;;;;;;;;;;10.40;92.20;;;;;;4994079;28;19914;-80
2022/12/21 03:15:08;;;;;;;;;;;10.40;92.20;;;;;;5006228;28;19914;-79
2022/12/21 03:17:40;;;;;;;;;;;10.40;92.20;;;;;;4989187;28;19921;-80
2022/12/21 03:20:05;;;;;;;;;;;10.50;92.10;;;;;;4988435;28;19921;-78
2022/12/21 03:22:39;;;;;;;;;;;10.50;92.20;;;;;;4991224;28;20285;-81
2022/12/21 03:25:08;;;;;;;;;;;10.40;91.90;;;;;;4991050;28;19937;-79
2022/12/21 03:27:37;;;;;;;;;;;10.40;92.00;;;;;;4988857;28;20378;-81
2022/12/21 03:30:07;;;;;;;;;;;10.40;92.10;;;;;;4988307;28;19921;-79
2022/12/21 03:32:42;;;;;;;;;;;10.50;92.10;;;;;;4992294;28;19945;-81
2022/12/21 03:35:10;;;;;;;;;;;10.50;92.00;;;;;;4991676;28;20318;-80
2022/12/21 03:37:38;;;;;;;;;;;10.40;91.70;;;;;;4999657;28;19910;-81
2022/12/21 03:40:13;;;;;;;;;;;10.40;91.70;;;;;;4993469;28;19949;-81
2022/12/21 03:42:43;;;;;;;;;;;10.40;91.70;;;;;;4992460;28;20444;-81
2022/12/21 03:45:15;;;;;;;;;;;10.40;91.70;;;;;;4994578;28;19918;-81
2022/12/21 03:47:56;;;;;;;;;;;10.40;91.90;;;;;;4992817;28;20461;-81
2022/12/21 03:50:27;;;;;;;;;;;10.30;91.90;;;;;;4996101;28;19909;-81
2022/12/21 03:53:00;;;;;;;;;;;10.40;92.00;;;;;;4992217;28;19952;-79
2022/12/21 03:55:30;;;;;;;;;;;10.30;91.80;;;;;;5002436;28;20269;-79
2022/12/21 03:57:56;;;;;;;;;;;10.40;92.00;;;;;;4994432;28;19949;-81
2022/12/21 04:00:22;;;;;;;;;;;10.30;92.00;;;;;;4993877;28;20012;-80
2022/12/21 04:03:07;;;;;;;;;;;10.40;92.10;;;;;;4993848;28;19957;-80
2022/12/21 04:05:35;;;;;;;;;;;10.30;92.00;;;;;;4995375;28;19921;-80
2022/12/21 04:08:01;;;;;;;;;;;10.30;92.00;;;;;;4992705;28;19929;-79
2022/12/21 04:10:27;;;;;;;;;;;10.40;92.00;;;;;;4993723;28;19922;-80
2022/12/21 04:12:52;;;;;;;;;;;10.40;92.00;;;;;;4992845;28;19936;-79
2022/12/21 04:15:19;;;;;;;;;;;10.40;92.00;;;;;;4999940;28;19944;-78
2022/12/21 04:17:46;;;;;;;;;;;10.40;91.90;;;;;;4988946;28;19937;-80
2022/12/21 04:20:13;;;;;;;;;;;10.40;91.90;;;;;;4994845;28;19977;-79
2022/12/21 04:28:15;;;;;;;;;;;10.40;91.90;;;;;;4991026;28;20412;-79
2022/12/21 04:30:41;;;;;;;;;;;10.50;91.70;;;;;;5004219;28;19918;-80
2022/12/21 04:33:08;;;;;;;;;;;10.40;91.80;;;;;;4990117;28;20057;-78
2022/12/21 04:35:34;;;;;;;;;;;10.40;91.80;;;;;;4995181;28;20372;-79
2022/12/21 04:38:00;;;;;;;;;;;10.40;91.80;;;;;;4990520;28;20009;-80
2022/12/21 04:40:26;;;;;;;;;;;10.40;91.70;;;;;;4986336;28;19968;-79
2022/12/21 04:42:51;;;;;;;;;;;10.40;91.70;;;;;;4990316;28;20381;-80
2022/12/21 04:45:17;;;;;;;;;;;10.40;91.70;;;;;;4992441;28;19968;-79
2022/12/21 04:47:42;;;;;;;;;;;10.50;91.80;;;;;;4996287;28;20857;-80
2022/12/21 04:50:08;;;;;;;;;;;10.40;91.80;;;;;;4992313;28;19976;-80
2022/12/21 04:52:34;;;;;;;;;;;10.40;91.70;;;;;;5009579;28;19917;-81
2022/12/21 04:54:59;;;;;;;;;;;10.40;91.70;;;;;;4997488;28;19914;-79
2022/12/21 04:57:24;;;;;;;;;;;10.40;91.70;;;;;;4989405;28;19922;-79
2022/12/21 04:59:50;;;;;;;;;;;10.40;91.70;;;;;;4990020;28;19918;-79
2022/12/21 05:02:15;;;;;;;;;;;10.50;91.70;;;;;;4991760;28;20008;-79
2022/12/21 05:04:41;;;;;;;;;;;10.50;91.60;;;;;;4987228;28;20004;-80
2022/12/21 05:07:06;;;;;;;;;;;10.50;91.70;;;;;;4991562;28;19917;-79
2022/12/21 05:09:32;;;;;;;;;;;10.40;91.70;;;;;;4991792;28;20357;-80
2022/12/21 05:11:57;;;;;;;;;;;10.50;91.60;;;;;;5004701;28;19968;-79
2022/12/21 05:14:23;;;;;;;;;;;10.40;91.50;;;;;;4987571;28;20348;-80
2022/12/21 05:16:48;;;;;;;;;;;10.40;91.50;;;;;;4991295;28;19922;-80
2022/12/21 05:19:14;;;;;;;;;;;10.50;91.70;;;;;;4990981;28;19968;-79
2022/12/21 05:21:40;;;;;;;;;;;10.40;91.60;;;;;;4988375;28;19924;-79
2022/12/21 05:24:06;;;;;;;;;;;10.40;91.60;;;;;;5000205;28;20330;-79
2022/12/21 05:26:31;;;;;;;;;;;10.40;91.80;;;;;;4985826;28;19922;-79
2022/12/21 05:28:56;;;;;;;;;;;10.40;91.70;;;;;;4996664;28;19922;-80
2022/12/21 05:31:22;;;;;;;;;;;10.40;91.80;;;;;;4990438;28;19918;-81
2022/12/21 05:33:48;;;;;;;;;;;10.30;91.90;;;;;;4988711;28;20333;-78
2022/12/21 05:36:14;;;;;;;;;;;10.30;91.90;;;;;;4988077;28;20440;-79
2022/12/21 05:38:40;;;;;;;;;;;10.30;91.90;;;;;;4987559;28;19925;-79
2022/12/21 05:41:06;;;;;;;;;;;10.30;91.70;;;;;;4996318;28;19914;-80
2022/12/21 05:43:31;;;;;;;;;;;10.40;92.00;;;;;;4987962;28;19921;-81
2022/12/21 05:46:04;;;;;;;;;;;10.50;91.90;;;;;;4994039;28;19914;-79
2022/12/21 05:48:29;;;;;;;;;;;10.50;91.70;;;;;;4991386;28;20021;-81
2022/12/21 05:50:55;;;;;;;;;;;10.40;91.70;;;;;;4990407;28;19925;-82
2022/12/21 05:53:20;;;;;;;;;;;10.30;91.70;;;;;;5008856;28;20071;-79
2022/12/21 05:55:46;;;;;;;;;;;10.40;91.70;;;;;;5014547;28;19925;-81
2022/12/21 05:58:12;;;;;;;;;;;10.30;91.80;;;;;;5012757;28;19902;-79
2022/12/21 06:00:38;;;;;;;;;;;10.30;91.80;;;;;;5015369;28;20012;-87
2022/12/21 06:03:04;;;;;;;;;;;10.40;91.70;;;;;;4986556;28;19914;-84
2022/12/21 06:05:30;;;;;;;;;;;10.40;91.70;;;;;;4991752;28;20344;-82
2022/12/21 06:07:55;;;;;;;;;;;10.40;91.70;;;;;;4986813;28;20013;-82
2022/12/21 06:10:20;;;;;;;;;;;10.30;91.80;;;;;;4992764;28;19917;-82
2022/12/21 06:12:46;;;;;;;;;;;10.40;91.90;;;;;;4982400;28;20117;-82
2022/12/21 06:15:11;;;;;;;;;;;10.40;91.80;;;;;;4989877;28;19957;-82
2022/12/21 06:17:37;;;;;;;;;;;10.30;91.70;;;;;;5004421;28;19914;-83
2022/12/21 06:20:03;;;;;;;;;;;10.30;91.90;;;;;;4985165;28;19918;-84
2022/12/21 06:22:28;;;;;;;;;;;10.30;91.90;;;;;;4984754;28;19917;-83
2022/12/21 06:24:53;;;;;;;;;;;10.30;91.90;;;;;;4994834;28;19922;-80
2022/12/21 06:27:19;;;;;;;;;;;10.30;92.00;;;;;;4981065;28;19976;-80
2022/12/21 06:29:44;;;;;;;;;;;10.30;91.90;;;;;;4995802;28;19914;-84
2022/12/21 06:32:10;;;;;;;;;;;10.20;92.00;;;;;;4994687;28;19929;-84
2022/12/21 06:34:36;;;;;;;;;;;10.20;91.90;;;;;;4988269;28;19920;-85
2022/12/21 06:37:01;;;;;;;;;;;10.20;91.90;;;;;;4989215;28;20016;-83
2022/12/21 06:39:27;;;;;;;;;;;10.20;92.00;;;;;;4991299;28;20329;-82
2022/12/21 06:41:52;;;;;;;;;;;10.20;92.00;;;;;;4986262;28;19929;-84
2022/12/21 06:44:18;;;;;;;;;;;10.10;92.00;;;;;;4993283;28;20416;-84
2022/12/21 06:46:44;;;;;;;;;;;10.20;92.00;;;;;;4991118;28;19925;-82
2022/12/21 06:49:11;;;;;;;;;;;10.20;92.00;;;;;;5002472;28;19936;-82
2022/12/21 06:51:37;;;;;;;;;;;10.20;91.80;;;;;;5003122;28;20011;-81
2022/12/21 06:54:03;;;;;;;;;;;10.30;91.90;;;;;;5006866;28;19914;-81
2022/12/21 06:56:31;;;;;;;;;;;10.30;91.80;;;;;;4998522;28;19928;-81
2022/12/21 06:58:57;;;;;;;;;;;10.30;91.70;;;;;;4994374;28;19914;-77
2022/12/21 07:01:27;;;;;;;;;;;10.20;91.80;;;;;;4993088;28;20312;-79
2022/12/21 07:03:53;;;;;;;;;;;10.30;91.80;;;;;;5016352;28;19914;-78
2022/12/21 07:06:19;;;;;;;;;;;10.30;91.70;;;;;;5011824;28;19933;-81
2022/12/21 07:08:45;;;;;;;;;;;10.30;91.60;;;;;;4996341;28;20293;-78
2022/12/21 07:11:12;;;;;;;;;;;10.20;91.60;;;;;;4995073;28;19924;-79
2022/12/21 07:13:39;;;;;;;;;;;10.20;91.70;;;;;;4994754;28;19914;-80
2022/12/21 07:16:05;;;;;;;;;;;10.30;91.60;;;;;;4997104;28;19981;-81
2022/12/21 07:18:30;;;;;;;;;;;10.30;91.70;;;;;;4993870;28;19948;-81
2022/12/21 07:20:57;;;;;;;;;;;10.30;91.70;;;;;;5009308;28;19914;-80
2022/12/21 07:23:22;;;;;;;;;;;10.30;91.60;;;;;;4996208;28;19937;-80
2022/12/21 07:25:48;;;;;;;;;;;10.30;91.70;;;;;;4994309;28;19918;-80
2022/12/21 07:28:13;;;;;;;;;;;10.30;91.60;;;;;;5032656;23;20019;-82
2022/12/21 07:30:39;;;;;;;;;;;10.20;91.70;;;;;;5014777;28;19918;-83
2022/12/21 07:33:04;;;;;;;;;;;10.20;91.80;;;;;;5014015;28;19940;-85
2022/12/21 07:35:30;;;;;;;;;;;10.20;91.70;;;;;;5009102;28;19993;-84
2022/12/21 07:37:56;;;;;;;;;;;10.20;91.80;;;;;;5020511;28;19918;-84
2022/12/21 07:40:21;;;;;;;;;;;10.20;91.80;;;;;;5005840;28;20083;-86
2022/12/21 07:42:49;;;;;;;;;;;10.20;91.90;;;;;;5000950;28;19976;-86
2022/12/21 07:45:23;;;;;;;;;;;10.20;92.00;;;;;;5009321;28;20051;-86
2022/12/21 07:47:57;;;;;;;;;;;10.20;91.90;;;;;;5003787;28;20020;-86
2022/12/21 07:50:31;;;;;;;;;;;10.30;92.00;;;;;;5005258;28;19913;-85
2022/12/21 07:53:00;;;;;;;;;;;10.20;91.90;;;;;;5009742;28;19922;-86
2022/12/21 07:55:25;;;;;;;;;;;10.10;91.90;;;;;;5010992;28;19959;-86
2022/12/21 07:57:54;;;;;;;;;;;10.20;92.00;;;;;;5009057;28;19983;-86
2022/12/21 08:00:22;;;;;;;;;;;10.20;92.00;;;;;;5007365;28;19949;-85
2022/12/21 08:02:50;;;;;;;;;;;10.10;92.00;;;;;;5015284;28;19913;-85
2022/12/21 08:05:19;;;;;;;;;;;10.10;92.00;;;;;;5011583;28;20056;-84
2022/12/21 08:07:45;;;;;;;;;;;10.20;92.00;;;;;;5014258;28;20302;-82
2022/12/21 08:10:11;;;;;;;;;;;10.20;91.90;;;;;;5011196;28;19922;-83
2022/12/21 08:12:36;;;;;;;;;;;10.20;92.00;;;;;;5013202;28;20008;-82
2022/12/21 08:15:02;;;;;;;;;;;10.20;92.10;;;;;;5026749;28;19921;-82
2022/12/21 08:17:27;;;;;;;;;;;10.20;92.00;;;;;;5034471;28;19920;-83
2022/12/21 08:19:53;;;;;;;;;;;10.30;92.00;;;;;;5011929;28;19917;-83
2022/12/21 08:22:18;;;;;;;;;;;10.30;91.90;;;;;;5010091;28;19914;-83
2022/12/21 08:24:44;;;;;;;;;;;10.40;92.00;;;;;;5016859;28;19920;-82
2022/12/21 08:27:10;;;;;;;;;;;10.40;91.90;;;;;;5023785;28;19918;-83
2022/12/21 08:29:36;;;;;;;;;;;10.40;91.90;;;;;;5018309;28;19936;-81
2022/12/21 08:32:02;;;;;;;;;;;10.50;91.60;;;;;;5012250;28;19991;-83
2022/12/21 08:34:28;;;;;;;;;;;10.40;91.60;;;;;;5016393;28;19921;-82
2022/12/21 08:36:53;;;;;;;;;;;10.40;91.70;;;;;;5014029;28;19922;-82
2022/12/21 08:39:19;;;;;;;;;;;10.50;91.70;;;;;;5016967;28;19927;-82
2022/12/21 08:41:44;;;;;;;;;;;10.50;91.70;;;;;;5010103;28;19957;-82
2022/12/21 08:44:09;;;;;;;;;;;10.50;91.70;;;;;;5013012;28;20560;-84
2022/12/21 08:46:35;;;;;;;;;;;10.50;91.70;;;;;;5014607;28;20436;-83
2022/12/21 08:49:00;;;;;;;;;;;10.50;91.50;;;;;;5023437;28;19971;-84
2022/12/21 08:51:26;;;;;;;;;;;10.50;91.40;;;;;;5013422;28;19918;-83
2022/12/21 08:53:52;;;;;;;;;;;10.60;91.30;;;;;;5018989;28;19913;-82
2022/12/21 08:56:17;;;;;;;;;;;10.70;91.00;;;;;;5015073;28;19916;-82
2022/12/21 08:58:43;;;;;;;;;;;10.60;91.10;;;;;;5011225;28;20294;-82
2022/12/21 09:01:10;;;;;;;;;;;10.50;91.00;;;;;;5012583;28;20287;-81
2022/12/21 09:03:35;;;;;;;;;;;10.50;91.10;;;;;;5009050;28;20379;-82
2022/12/21 09:06:03;;;;;;;;;;;10.50;91.00;;;;;;5008986;28;20054;-82
2022/12/21 09:08:29;;;;;;;;;;;10.30;91.10;;;;;;5014378;28;19918;-82
2022/12/21 09:10:59;;;;;;;;;;;10.30;91.20;;;;;;5015127;28;19920;-82
2022/12/21 09:13:25;;;;;;;;;;;10.30;91.20;;;;;;5012795;28;19921;-82
2022/12/21 09:15:50;;;;;;;;;;;10.30;91.30;;;;;;5026229;28;20298;-82
2022/12/21 09:18:16;;;;;;;;;;;10.30;91.00;;;;;;5014561;28;20011;-82
2022/12/21 09:20:41;;;;;;;;;;;10.20;91.10;;;;;;5018435;28;19921;-82
2022/12/21 09:23:06;;;;;;;;;;;10.30;91.20;;;;;;4998438;28;19920;-82
2022/12/21 09:25:33;;;;;;;;;;;10.30;91.20;;;;;;5005480;28;19913;-83
2022/12/21 09:28:00;;;;;;;;;;;10.30;91.10;;;;;;5004996;28;19921;-82
2022/12/21 09:30:26;;;;;;;;;;;10.40;91.10;;;;;;5013660;28;20410;-82
2022/12/21 09:32:51;;;;;;;;;;;10.40;91.10;;;;;;5008966;28;19952;-82
2022/12/21 09:35:16;;;;;;;;;;;10.40;90.80;;;;;;5015137;28;19913;-82
2022/12/21 09:37:42;;;;;;;;;;;10.40;90.70;;;;;;5009986;28;19941;-82
2022/12/21 09:40:10;;;;;;;;;;;10.30;90.70;;;;;;5013847;28;19937;-83
2022/12/21 09:42:42;;;;;;;;;;;10.20;90.80;;;;;;5032230;28;19914;-83
2022/12/21 09:45:10;;;;;;;;;;;10.20;90.90;;;;;;5021731;28;19971;-83
2022/12/21 09:47:45;;;;;;;;;;;10.20;90.80;;;;;;5025254;28;19948;-83
2022/12/21 09:50:13;;;;;;;;;;;10.30;90.90;;;;;;5025561;28;19918;-84
2022/12/21 09:52:42;;;;;;;;;;;10.20;90.80;;;;;;5016172;28;19945;-83
2022/12/21 09:55:15;;;;;;;;;;;10.20;90.80;;;;;;5011330;28;20044;-84
2022/12/21 09:57:42;;;;;;;;;;;10.30;91.00;;;;;;5011356;28;19918;-84
2022/12/21 10:00:15;;;;;;;;;;;10.40;90.90;;;;;;5021866;28;20008;-84
2022/12/21 10:02:48;;;;;;;;;;;10.20;90.80;;;;;;5009198;28;19961;-84
2022/12/21 10:05:33;;;;;;;;;;;10.10;91.00;;;;;;5005703;28;19968;-85
2022/12/21 10:08:04;;;;;;;;;;;10.20;91.10;;;;;;5013737;28;19972;-84
2022/12/21 10:10:29;;;;;;;;;;;10.20;91.20;;;;;;5010876;28;19914;-84
2022/12/21 10:13:04;;;;;;;;;;;10.20;91.10;;;;;;5024098;28;19972;-84
2022/12/21 10:15:56;;;;;;;;;;;10.20;91.00;;;;;;5013940;28;19957;-83
2022/12/21 10:18:33;;;;;;;;;;;10.10;90.80;;;;;;5010057;28;20272;-84
2022/12/21 10:21:11;;;;;;;;;;;10.00;91.20;;;;;;5005039;28;19922;-81
2022/12/21 10:23:56;;;;;;;;;;;10.00;91.40;;;;;;5007585;28;19940;-84
2022/12/21 10:26:23;;;;;;;;;;;10.10;91.40;;;;;;5018693;28;19914;-84
2022/12/21 10:28:49;;;;;;;;;;;10.00;91.20;;;;;;5010171;28;20184;-83
2022/12/21 10:31:35;;;;;;;;;;;10.10;91.20;;;;;;5008182;28;20009;-84
2022/12/21 10:34:03;;;;;;;;;;;10.10;91.00;;;;;;4998657;28;20032;-84
2022/12/21 10:36:34;;;;;;;;;;;10.00;91.00;;;;;;5028291;28;19913;-84
2022/12/21 10:38:59;;;;;;;;;;;10.00;90.80;;;;;;5007216;28;20027;-83
2022/12/21 10:41:28;;;;;;;;;;;10.10;90.60;;;;;;5002163;28;19968;-85
2022/12/21 10:44:00;;;;;;;;;;;10.10;90.60;;;;;;5006596;28;20291;-86
2022/12/21 10:46:37;;;;;;;;;;;10.00;90.30;;;;;;5011450;28;19967;-86
2022/12/21 10:49:12;;;;;;;;;;;10.10;90.20;;;;;;5001623;28;19925;-87
2022/12/21 10:51:40;;;;;;;;;;;10.10;90.20;;;;;;5009743;28;19918;-87
2022/12/21 10:54:07;;;;;;;;;;;10.10;89.80;;;;;;5016469;28;19981;-86
2022/12/21 10:56:41;;;;;;;;;;;10.10;89.70;;;;;;5012567;28;19959;-86
2022/12/21 10:59:15;;;;;;;;;;;10.00;89.90;;;;;;5016589;28;19963;-86
2022/12/21 11:01:43;;;;;;;;;;;10.00;90.10;;;;;;5012553;28;19921;-86
2022/12/21 11:04:14;;;;;;;;;;;9.90;90.20;;;;;;4999064;28;19914;-85
2022/12/21 11:06:44;;;;;;;;;;;9.90;90.30;;;;;;5026812;28;20154;-86
2022/12/21 11:09:32;;;;;;;;;;;10.00;90.40;;;;;;5018214;28;19957;-86
2022/12/21 11:12:11;;;;;;;;;;;10.00;89.70;;;;;;5011724;28;19925;-85
2022/12/21 11:14:37;;;;;;;;;;;10.10;89.60;;;;;;5030079;28;19937;-85
2022/12/21 11:17:03;;;;;;;;;;;10.00;89.70;;;;;;5010243;28;19944;-85
2022/12/21 11:19:33;;;;;;;;;;;10.00;89.70;;;;;;5013317;28;19922;-85
2022/12/21 11:21:59;;;;;;;;;;;10.00;89.50;;;;;;5019583;28;20317;-85
2022/12/21 11:24:32;;;;;;;;;;;10.00;89.70;;;;;;5028633;28;19918;-85
2022/12/21 11:27:00;;;;;;;;;;;10.10;88.90;;;;;;5015310;28;19914;-85
2022/12/21 11:29:30;;;;;;;;;;;10.20;88.80;;;;;;5005925;28;20355;-86
2022/12/21 11:32:04;;;;;;;;;;;10.20;88.30;;;;;;5011564;28;19917;-86
2022/12/21 11:34:37;;;;;;;;;;;10.10;87.10;;;;;;5010850;28;20399;-85
2022/12/21 11:37:19;;;;;;;;;;;10.00;87.30;;;;;;5017302;28;19916;-84
2022/12/21 11:39:45;;;;;;;;;;;10.00;87.00;;;;;;5014970;28;19917;-85
2022/12/21 11:42:21;;;;;;;;;;;10.00;87.00;;;;;;5003159;28;19924;-85
2022/12/21 11:44:48;;;;;;;;;;;10.00;87.40;;;;;;5019664;28;19917;-85
2022/12/21 11:47:16;;;;;;;;;;;10.00;87.40;;;;;;5015245;28;19959;-85
2022/12/21 11:49:50;;;;;;;;;;;10.00;87.30;;;;;;5012765;28;20015;-85
2022/12/21 11:52:34;;;;;;;;;;;10.10;86.70;;;;;;5014280;28;20282;-85
2022/12/21 11:55:04;;;;;;;;;;;10.10;87.20;;;;;;5009039;28;19931;-85
2022/12/21 11:57:49;;;;;;;;;;;10.10;86.90;;;;;;5009813;28;19914;-85
2022/12/21 12:00:19;;;;;;;;;;;10.10;87.20;;;;;;5005602;28;19965;-86
2022/12/21 12:02:45;;;;;;;;;;;10.10;86.70;;;;;;5010413;28;19933;-85
2022/12/21 12:05:42;;;;;;;;;;;10.00;87.00;;;;;;5007194;28;19917;-85
2022/12/21 12:08:27;;;;;;;;;;;10.00;87.20;;;;;;5003043;28;19928;-85
2022/12/21 12:11:11;;;;;;;;;;;9.90;87.80;;;;;;5012131;28;19921;-85
2022/12/21 12:13:51;;;;;;;;;;;9.90;87.40;;;;;;5022295;28;19910;-87
2022/12/21 12:16:23;;;;;;;;;;;9.90;87.50;;;;;;5011795;28;19914;-83
2022/12/21 12:18:48;;;;;;;;;;;9.80;88.00;;;;;;5020919;28;19918;-86
2022/12/21 12:21:32;;;;;;;;;;;9.80;87.70;;;;;;5015086;28;20306;-86
2022/12/21 12:24:04;;;;;;;;;;;9.80;87.50;;;;;;5009842;28;20383;-85
2022/12/21 12:26:32;;;;;;;;;;;9.70;87.70;;;;;;5025768;28;19921;-86
2022/12/21 12:29:17;;;;;;;;;;;9.80;87.40;;;;;;5013744;28;19918;-86
2022/12/21 12:31:42;;;;;;;;;;;9.80;87.60;;;;;;5032516;28;19979;-86
2022/12/21 12:34:30;;;;;;;;;;;9.70;87.40;;;;;;5028638;28;20284;-85
2022/12/21 12:37:05;;;;;;;;;;;9.70;88.00;;;;;;5014067;28;19936;-87
2022/12/21 12:39:37;;;;;;;;;;;9.70;88.00;;;;;;5015555;28;20168;-86
2022/12/21 12:42:07;;;;;;;;;;;9.80;88.10;;;;;;5020751;28;20314;-87
2022/12/21 12:44:45;;;;;;;;;;;9.80;87.70;;;;;;5033915;28;19909;-87
2022/12/21 12:47:18;;;;;;;;;;;9.80;87.70;;;;;;5014209;28;19976;-86
2022/12/21 12:49:47;;;;;;;;;;;9.70;87.70;;;;;;5020136;28;20343;-86
2022/12/21 12:52:25;;;;;;;;;;;9.70;87.40;;;;;;5015047;28;19914;-87
2022/12/21 12:54:53;;;;;;;;;;;9.70;87.50;;;;;;5007225;28;19922;-87
2022/12/21 12:57:42;;;;;;;;;;;9.60;87.50;;;;;;5002757;28;19971;-87
2022/12/21 13:00:14;;;;;;;;;;;9.70;87.60;;;;;;5003524;28;19976;-89
2022/12/21 13:02:58;;;;;;;;;;;9.70;87.30;;;;;;5013258;28;19913;-89
2022/12/21 13:05:43;;;;;;;;;;;9.70;87.10;;;;;;5029820;28;19917;-86
2022/12/21 13:08:36;;;;;;;;;;;9.60;87.20;;;;;;5027173;28;19932;-86
2022/12/21 13:11:27;;;;;;;;;;;9.60;87.40;;;;;;5025156;28;19925;-85
2022/12/21 13:14:37;;;;;;;;;;;9.60;87.70;;;;;;5008537;28;19917;-87
2022/12/21 13:17:27;;;;;;;;;;;9.60;87.50;;;;;;4998929;28;20004;-87
2022/12/21 13:19:53;;;;;;;;;;;9.60;87.80;;;;;;5023295;28;20346;-86
2022/12/21 13:22:41;;;;;;;;;;;9.60;87.80;;;;;;4995825;28;19918;-88
2022/12/21 13:25:30;;;;;;;;;;;9.60;87.70;;;;;;5017485;28;20392;-84
2022/12/21 13:28:03;;;;;;;;;;;9.60;87.70;;;;;;5005705;28;20008;-87
2022/12/21 13:30:39;;;;;;;;;;;9.60;87.90;;;;;;5006923;28;19914;-86
2022/12/21 13:33:08;;;;;;;;;;;9.60;87.60;;;;;;5004338;28;19921;-85
2022/12/21 13:35:44;;;;;;;;;;;9.60;88.00;;;;;;5009580;28;19921;-86
2022/12/21 13:38:11;;;;;;;;;;;9.60;87.70;;;;;;5001922;28;20326;-87
2022/12/21 13:40:43;;;;;;;;;;;9.60;87.50;;;;;;4993319;23;19934;-82
2022/12/21 13:43:13;;;;;;;;;;;9.60;87.60;;;;;;4969854;28;20381;-82
2022/12/21 13:45:50;;;;;;;;;;;9.70;87.70;;;;;;4994882;28;20289;-80
2022/12/21 13:48:21;;;;;;;;;;;9.60;87.70;;;;;;4968052;28;19922;-79
2022/12/21 13:51:07;;;;;;;;;;;9.80;87.60;;;;;;4960864;28;19921;-78
2022/12/21 13:53:38;;;;;;;;;;;9.70;87.40;;;;;;4956361;28;20014;-78
2022/12/21 13:56:10;;;;;;;;;;;9.70;87.40;;;;;;4975904;28;19914;-78
2022/12/21 13:58:48;;;;;;;;;;;9.70;87.20;;;;;;4963320;28;19914;-79
2022/12/21 14:01:16;;;;;;;;;;;9.70;87.40;;;;;;4961242;28;19923;-80
2022/12/21 14:03:46;;;;;;;;;;;9.70;87.30;;;;;;4952767;28;19919;-80
2022/12/21 14:06:18;;;;;;;;;;;9.60;87.20;;;;;;4963083;28;19953;-83
2022/12/21 14:08:46;;;;;;;;;;;9.70;87.10;;;;;;4981925;28;19949;-82
2022/12/21 14:11:31;;;;;;;;;;;9.60;87.10;;;;;;4965839;28;19973;-84
2022/12/21 14:14:07;;;;;;;;;;;9.60;87.10;;;;;;4968705;28;20294;-80
2022/12/21 14:16:33;;;;;;;;;;;9.60;86.60;;;;;;4963947;28;20597;-78
2022/12/21 14:19:00;;;;;;;;;;;9.50;87.20;;;;;;4947912;28;20374;-79
2022/12/21 14:21:27;;;;;;;;;;;9.50;87.00;;;;;;4946132;28;19929;-78
2022/12/21 14:23:54;;;;;;;;;;;9.50;86.70;;;;;;4974905;28;19915;-82
2022/12/21 14:26:38;;;;;;;;;;;9.60;86.50;;;;;;4963243;28;19970;-83
2022/12/21 14:29:10;;;;;;;;;;;9.60;86.70;;;;;;4967941;28;20286;-83
2022/12/21 14:31:36;;;;;;;;;;;9.50;86.70;;;;;;4957584;28;20610;-82
2022/12/21 14:34:07;;;;;;;;;;;9.50;86.90;;;;;;4950876;28;19914;-83
2022/12/21 14:36:33;;;;;;;;;;;9.40;87.10;;;;;;4948789;28;19973;-83
2022/12/21 14:39:04;;;;;;;;;;;9.40;87.00;;;;;;4953269;28;19958;-82